Terminal Aerodrome Forecast
Issued by NWS

Home | Current Version | Previous Version | Text Only | Print | Product List | Glossary On
Versions: 1 2 3 4 5 6 7 8 9 10 11 12 13 14 15 16 17 18 19 20 21 22 23 24
000
FTUS45 KCYS 060520
TAFLAR
TAF
KLAR 060520Z 0606/0706 17006KT P6SM SCT250
     FM061200 20006KT P6SM SCT200
     FM061800 35009KT P6SM VCSH BKN200
     FM062200 05008KT P6SM VCTS SCT050CB OVC150
     FM070100 34010KT 4SM -TSRA OVC035CB=

USA.gov is the U.S. government's official web portal to all federal, state and local government web resources and services.